Time;durP1;ratioP1;P1;durP2;ratioP2;P2;SDS_P1;SDS_P2;PMS_P1;PMS_P2;Temp;Humidity;BMP_temperature;BMP_pressure;BME280_temperature;BME280_humidity;BME280_pressure;Samples;Min_cycle;Max_cycle;Signal;HPM_P1;HPM_P2
2023/09/30 00:01:00;;;;;;;1999.90;999.90;;;16.70;99.90;;;;;;5072655;28;20038;-78
2023/09/30 00:03:26;;;;;;;1999.90;999.90;;;16.60;99.90;;;;;;5057529;28;20473;-78
2023/09/30 00:05:51;;;;;;;1999.90;999.90;;;16.60;99.90;;;;;;5057317;28;20064;-78
2023/09/30 00:08:17;;;;;;;1999.90;999.90;;;16.50;99.90;;;;;;5055413;28;20037;-78
2023/09/30 00:10:42;;;;;;;1999.90;999.90;;;16.50;99.90;;;;;;5055105;28;20076;-78
2023/09/30 00:13:08;;;;;;;1999.90;999.90;;;16.50;99.90;;;;;;5055776;28;20079;-78
2023/09/30 00:15:34;;;;;;;1999.90;999.90;;;16.50;99.90;;;;;;5057596;28;20402;-78
2023/09/30 00:18:01;;;;;;;1999.90;999.90;;;16.40;99.90;;;;;;5057173;28;20101;-77
2023/09/30 00:20:29;;;;;;;1999.90;999.90;;;16.40;99.90;;;;;;5057360;28;20030;-78
2023/09/30 00:22:55;;;;;;;1999.90;999.90;;;16.40;99.90;;;;;;5058526;28;20041;-78
2023/09/30 00:27:49;;;;;;;1999.90;999.90;;;16.40;99.90;;;;;;5014297;28;20050;-75
2023/09/30 00:30:14;;;;;;;1999.90;999.90;;;16.50;99.90;;;;;;5016781;28;20042;-75
2023/09/30 00:32:40;;;;;;;1999.90;999.90;;;16.60;99.90;;;;;;5017005;28;20044;-75
2023/09/30 00:35:12;;;;;;;1999.90;999.90;;;16.50;99.90;;;;;;5017055;28;20038;-75
2023/09/30 00:37:38;;;;;;;1999.90;999.90;;;16.50;99.90;;;;;;4997187;28;20042;-77
2023/09/30 00:40:05;;;;;;;1999.90;999.90;;;16.50;99.90;;;;;;4996848;28;20046;-77
2023/09/30 00:42:31;;;;;;;1999.90;999.90;;;16.50;99.90;;;;;;4997007;28;20090;-76
2023/09/30 00:44:56;;;;;;;1999.90;999.90;;;16.60;99.90;;;;;;4997221;28;20030;-77
2023/09/30 00:47:23;;;;;;;1999.90;999.90;;;16.50;99.90;;;;;;4996766;28;20034;-76
2023/09/30 00:49:50;;;;;;;1999.90;999.90;;;16.60;99.90;;;;;;4996996;28;20046;-77
2023/09/30 00:52:17;;;;;;;1999.90;999.90;;;16.50;99.90;;;;;;4997100;28;20033;-77
2023/09/30 00:54:43;;;;;;;1999.90;999.90;;;16.50;99.90;;;;;;4997023;28;20035;-76
2023/09/30 00:57:10;;;;;;;1999.90;999.90;;;16.50;99.90;;;;;;4996569;28;20034;-76
2023/09/30 00:59:37;;;;;;;1999.90;999.90;;;16.40;99.90;;;;;;4995962;28;20034;-77
2023/09/30 01:02:05;;;;;;;1999.90;999.90;;;16.50;99.90;;;;;;4996983;28;20117;-77
2023/09/30 01:04:31;;;;;;;1999.90;999.90;;;16.30;99.90;;;;;;4996564;28;20090;-76
2023/09/30 01:06:59;;;;;;;1999.90;999.90;;;16.30;99.90;;;;;;4995688;28;20110;-76
2023/09/30 01:09:25;;;;;;;1999.90;999.90;;;16.30;99.90;;;;;;4996719;28;20477;-76
2023/09/30 01:11:51;;;;;;;1999.90;999.90;;;16.30;99.90;;;;;;5010587;28;20043;-77
2023/09/30 01:14:27;;;;;;;1999.90;999.90;;;16.30;99.90;;;;;;4996859;28;20035;-77
2023/09/30 01:16:53;;;;;;;1999.90;999.90;;;16.20;99.90;;;;;;4996295;28;20035;-76
2023/09/30 01:19:18;;;;;;;1999.90;999.90;;;16.20;99.90;;;;;;4996577;28;20484;-76
2023/09/30 01:21:48;;;;;;;1999.90;999.90;;;16.20;99.90;;;;;;4995058;28;20117;-76
2023/09/30 01:24:14;;;;;;;1999.90;999.90;;;16.10;99.90;;;;;;4996597;28;20030;-76
2023/09/30 01:26:39;;;;;;;1999.90;999.90;;;16.10;99.90;;;;;;4994274;28;20053;-76
2023/09/30 01:29:05;;;;;;;1999.90;999.90;;;16.00;99.90;;;;;;5011493;28;20547;-77
2023/09/30 01:31:31;;;;;;;1999.90;999.90;;;16.00;99.90;;;;;;4996351;28;20043;-76
2023/09/30 01:33:56;;;;;;;1999.90;999.90;;;16.00;99.90;;;;;;4996620;28;20513;-77
2023/09/30 01:36:22;;;;;;;1999.90;999.90;;;16.00;99.90;;;;;;4996197;28;20034;-77
2023/09/30 01:38:47;;;;;;;1999.90;999.90;;;16.00;99.90;;;;;;4996313;28;20034;-76
2023/09/30 01:41:13;;;;;;;1999.90;999.90;;;15.90;99.90;;;;;;4996412;28;20174;-76
2023/09/30 01:43:39;;;;;;;1999.90;999.90;;;15.90;99.90;;;;;;4996163;28;20034;-77
2023/09/30 01:46:06;;;;;;;1999.90;999.90;;;15.90;99.90;;;;;;4995924;28;20049;-76
2023/09/30 01:48:31;;;;;;;1999.90;999.90;;;15.90;99.90;;;;;;4996176;28;20114;-77
2023/09/30 01:50:57;;;;;;;1999.90;999.90;;;15.80;99.90;;;;;;4996016;28;20039;-76
2023/09/30 01:53:23;;;;;;;1999.90;999.90;;;15.80;99.90;;;;;;4996024;28;20063;-76
2023/09/30 01:55:48;;;;;;;1999.90;999.90;;;15.80;99.90;;;;;;4995768;28;20039;-77
2023/09/30 01:58:14;;;;;;;1999.90;999.90;;;15.80;99.90;;;;;;4995876;28;20031;-76
2023/09/30 02:00:39;;;;;;;1999.90;999.90;;;15.70;99.90;;;;;;4994538;28;20049;-77
2023/09/30 02:03:05;;;;;;;1999.90;999.90;;;15.70;99.90;;;;;;4994425;28;20030;-77
2023/09/30 02:05:31;;;;;;;1999.90;999.90;;;15.70;99.90;;;;;;4995726;28;20039;-77
2023/09/30 02:07:56;;;;;;;1999.90;999.90;;;15.60;99.90;;;;;;4993822;28;20776;-77
2023/09/30 02:10:22;;;;;;;1999.90;999.90;;;15.60;99.90;;;;;;4995711;28;20050;-77
2023/09/30 02:12:48;;;;;;;1999.90;999.90;;;15.60;99.90;;;;;;4996057;28;20030;-76
2023/09/30 02:15:14;;;;;;;1999.90;999.90;;;15.60;99.90;;;;;;4995827;28;20046;-77
2023/09/30 02:17:39;;;;;;;1999.90;999.90;;;15.60;99.90;;;;;;4995578;28;20035;-77
2023/09/30 02:20:12;;;;;;;1999.90;999.90;;;15.60;99.90;;;;;;4995901;28;20787;-77
2023/09/30 02:22:38;;;;;;;1999.90;999.90;;;15.60;99.90;;;;;;5010482;28;20082;-76
2023/09/30 02:25:07;;;;;;;1999.90;999.90;;;15.50;99.90;;;;;;4994262;28;20039;-76
2023/09/30 02:27:32;;;;;;;1999.90;999.90;;;15.50;99.90;;;;;;4994861;28;20412;-77
2023/09/30 02:29:58;;;;;;;1999.90;999.90;;;15.50;99.90;;;;;;4995468;28;20054;-77
2023/09/30 02:32:24;;;;;;;1999.90;999.90;;;15.40;99.90;;;;;;5010542;28;20030;-77
2023/09/30 02:34:50;;;;;;;1999.90;999.90;;;15.40;99.90;;;;;;4995643;28;20034;-77
2023/09/30 02:37:18;;;;;;;1999.90;999.90;;;15.50;99.90;;;;;;4993518;28;20488;-76
2023/09/30 02:39:44;;;;;;;1999.90;999.90;;;15.40;99.90;;;;;;4995665;28;20050;-76
2023/09/30 02:42:10;;;;;;;1999.90;999.90;;;15.40;99.90;;;;;;4995440;28;20030;-76
2023/09/30 02:44:35;;;;;;;1999.90;999.90;;;15.40;99.90;;;;;;4994064;28;20035;-76
2023/09/30 02:47:01;;;;;;;1999.90;999.90;;;15.30;99.90;;;;;;4994640;28;20037;-76
2023/09/30 02:49:27;;;;;;;1999.90;999.90;;;15.30;99.90;;;;;;4995221;28;20045;-77
2023/09/30 02:51:53;;;;;;;1999.90;999.90;;;15.20;99.90;;;;;;4995508;28;20125;-77
2023/09/30 02:54:18;;;;;;;1999.90;999.90;;;15.10;99.90;;;;;;4995481;28;20114;-76
2023/09/30 02:56:46;;;;;;;1999.90;999.90;;;15.10;99.90;;;;;;4995071;28;20031;-77
2023/09/30 02:59:12;;;;;;;1999.90;999.90;;;15.00;99.90;;;;;;4993890;28;20035;-76
2023/09/30 03:01:38;;;;;;;1999.90;999.90;;;15.00;99.90;;;;;;4994897;28;20035;-76
2023/09/30 03:04:06;;;;;;;1999.90;999.90;;;15.00;99.90;;;;;;5010174;28;20420;-77
2023/09/30 03:06:35;;;;;;;1999.90;999.90;;;14.90;99.90;;;;;;4994522;28;20108;-77
2023/09/30 03:09:02;;;;;;;1999.90;999.90;;;14.90;99.90;;;;;;4995025;28;20074;-77
2023/09/30 03:11:27;;;;;;;1999.90;999.90;;;14.80;99.90;;;;;;4994970;28;20034;-76
2023/09/30 03:13:55;;;;;;;1999.90;999.90;;;14.80;99.90;;;;;;4995079;28;20519;-76
2023/09/30 03:16:20;;;;;;;1999.90;999.90;;;14.70;99.90;;;;;;4994479;28;20031;-76
2023/09/30 03:18:46;;;;;;;1999.90;999.90;;;14.70;99.90;;;;;;4995046;28;20027;-76
2023/09/30 03:21:15;;;;;;;1999.90;999.90;;;14.70;99.90;;;;;;4995160;28;20430;-77
2023/09/30 03:23:41;;;;;;;1999.90;999.90;;;14.70;99.90;;;;;;4997375;28;20035;-77
2023/09/30 03:26:10;;;;;;;1999.90;999.90;;;14.70;99.90;;;;;;5012251;28;20065;-76
2023/09/30 03:28:39;;;;;;;1999.90;999.90;;;14.80;99.90;;;;;;4998300;28;20066;-77
2023/09/30 03:31:05;;;;;;;1999.90;999.90;;;14.80;99.90;;;;;;4996799;28;20887;-76
2023/09/30 03:33:33;;;;;;;1999.90;999.90;;;14.80;99.90;;;;;;4998344;28;20034;-76
2023/09/30 03:35:59;;;;;;;1999.90;999.90;;;14.80;99.90;;;;;;4996442;28;20121;-77
2023/09/30 03:38:26;;;;;;;1999.90;999.90;;;14.80;99.90;;;;;;4998398;28;20469;-76
2023/09/30 03:40:53;;;;;;;1999.90;999.90;;;14.90;99.90;;;;;;4998159;28;20087;-76
2023/09/30 03:43:20;;;;;;;1999.90;999.90;;;14.90;99.90;;;;;;4996620;28;20046;-77
2023/09/30 03:45:45;;;;;;;1999.90;999.90;;;14.80;99.90;;;;;;4997343;28;20035;-76
2023/09/30 03:48:11;;;;;;;1999.90;999.90;;;14.80;99.90;;;;;;4997960;28;20026;-77
2023/09/30 03:50:37;;;;;;;1999.90;999.90;;;14.80;99.90;;;;;;4997814;28;20409;-76
2023/09/30 03:53:07;;;;;;;1999.90;999.90;;;14.80;99.90;;;;;;4997996;28;20027;-76
2023/09/30 03:55:33;;;;;;;1999.90;999.90;;;14.70;99.90;;;;;;4997477;28;20041;-76
2023/09/30 03:57:59;;;;;;;1999.90;999.90;;;14.80;99.90;;;;;;4997618;28;20035;-76
2023/09/30 04:00:24;;;;;;;1999.90;999.90;;;14.70;99.90;;;;;;4996544;28;20038;-76
2023/09/30 04:02:54;;;;;;;1999.90;999.90;;;14.60;99.90;;;;;;4997950;28;20039;-77
2023/09/30 04:05:26;;;;;;;1999.90;999.90;;;14.60;99.90;;;;;;4997554;28;20057;-76
2023/09/30 04:07:51;;;;;;;1999.90;999.90;;;14.50;99.90;;;;;;4997799;28;20022;-76
2023/09/30 04:10:17;;;;;;;1999.90;999.90;;;14.50;99.90;;;;;;5012627;28;20516;-76
2023/09/30 04:12:43;;;;;;;1999.90;999.90;;;14.30;99.90;;;;;;4997672;28;20070;-76
2023/09/30 04:15:11;;;;;;;1999.90;999.90;;;14.30;99.90;;;;;;4997830;28;20038;-76
2023/09/30 04:17:38;;;;;;;1999.90;999.90;;;14.20;99.90;;;;;;4997222;28;20054;-76
2023/09/30 04:20:08;;;;;;;1999.90;999.90;;;14.10;99.90;;;;;;4997819;28;20030;-76
2023/09/30 04:22:35;;;;;;;1999.90;999.90;;;14.00;99.90;;;;;;4997458;28;20475;-76
2023/09/30 04:25:02;;;;;;;1999.90;999.90;;;13.90;99.90;;;;;;4997277;28;20061;-76
2023/09/30 04:27:27;;;;;;;1999.90;999.90;;;13.80;99.90;;;;;;4996903;28;20031;-76
2023/09/30 04:29:53;;;;;;;1999.90;999.90;;;13.80;99.90;;;;;;4997606;28;20039;-76
2023/09/30 04:32:19;;;;;;;1999.90;999.90;;;13.70;99.90;;;;;;5012504;28;20078;-76
2023/09/30 04:34:46;;;;;;;1999.90;999.90;;;13.60;99.90;;;;;;4996056;28;20038;-76
2023/09/30 04:37:13;;;;;;;1999.90;999.90;;;13.50;99.90;;;;;;4996710;28;20066;-77
2023/09/30 04:39:39;;;;;;;1999.90;999.90;;;13.50;99.90;;;;;;4997393;28;20473;-76
2023/09/30 04:42:05;;;;;;;1999.90;999.90;;;13.40;99.90;;;;;;4997371;28;20042;-76
2023/09/30 04:44:31;;;;;;;1999.90;999.90;;;13.30;99.90;;;;;;4997029;28;20548;-76
2023/09/30 04:46:57;;;;;;;1999.90;999.90;;;13.20;99.90;;;;;;4996625;28;20443;-76
2023/09/30 04:49:24;;;;;;;1999.90;999.90;;;13.10;99.90;;;;;;5012009;28;20035;-76
2023/09/30 04:51:50;;;;;;;1999.90;999.90;;;13.00;99.90;;;;;;4995496;28;20039;-76
2023/09/30 04:54:15;;;;;;;1999.90;999.90;;;12.90;99.90;;;;;;4996951;28;20031;-76
2023/09/30 04:56:41;;;;;;;1999.90;999.90;;;12.90;99.90;;;;;;4996521;28;20038;-76
2023/09/30 04:59:07;;;;;;;1999.90;999.90;;;12.70;99.90;;;;;;5011867;28;20481;-76
2023/09/30 05:01:32;;;;;;;1999.90;999.90;;;12.70;99.90;;;;;;4995366;28;20404;-76
2023/09/30 05:03:58;;;;;;;1999.90;999.90;;;12.60;99.90;;;;;;4996878;28;20117;-76
2023/09/30 05:06:24;;;;;;;1999.90;999.90;;;12.60;99.90;;;;;;4996514;28;20042;-76
2023/09/30 05:08:50;;;;;;;1999.90;999.90;;;12.50;99.90;;;;;;4996803;28;20555;-76
2023/09/30 05:11:16;;;;;;;1999.90;999.90;;;12.50;99.90;;;;;;4996413;28;20053;-76
2023/09/30 05:13:41;;;;;;;1999.90;999.90;;;12.40;99.90;;;;;;4996488;28;20162;-76
2023/09/30 05:16:10;;;;;;;1999.90;999.90;;;12.40;99.90;;;;;;4996077;28;20093;-76
2023/09/30 05:18:36;;;;;;;1999.90;999.90;;;12.30;99.90;;;;;;4996465;28;20484;-76
2023/09/30 05:21:02;;;;;;;1999.90;999.90;;;12.30;99.90;;;;;;5011559;28;20043;-76
2023/09/30 05:23:28;;;;;;;1999.90;999.90;;;12.20;99.90;;;;;;4994809;28;20066;-76
2023/09/30 05:25:53;;;;;;;1999.90;999.90;;;12.20;99.90;;;;;;4995657;28;20047;-76
2023/09/30 05:28:20;;;;;;;1999.90;999.90;;;12.20;99.90;;;;;;4996825;28;20034;-76
2023/09/30 05:30:46;;;;;;;1999.90;999.90;;;12.20;99.90;;;;;;4996264;28;20039;-76
2023/09/30 05:33:14;;;;;;;1999.90;999.90;;;12.20;99.90;;;;;;4996361;28;20027;-76
2023/09/30 05:35:40;;;;;;;1999.90;999.90;;;12.20;99.90;;;;;;4996416;28;20078;-76
2023/09/30 05:38:07;;;;;;;1999.90;999.90;;;12.20;99.90;;;;;;4996217;28;20034;-76
2023/09/30 05:40:33;;;;;;;1999.90;999.90;;;12.20;99.90;;;;;;4996305;28;20039;-76
2023/09/30 05:42:59;;;;;;;1999.90;999.90;;;12.20;99.90;;;;;;4995971;28;20472;-76
2023/09/30 05:45:26;;;;;;;1999.90;999.90;;;12.20;99.90;;;;;;4995628;28;20038;-76
2023/09/30 05:47:56;;;;;;;1999.90;999.90;;;12.20;99.90;;;;;;4995928;28;20027;-76
2023/09/30 05:50:26;;;;;;;1999.90;999.90;;;12.30;99.90;;;;;;4996227;28;20073;-76
2023/09/30 05:52:53;;;;;;;1999.90;999.90;;;12.30;99.90;;;;;;4995964;28;20030;-76
2023/09/30 05:55:20;;;;;;;1999.90;999.90;;;12.40;99.90;;;;;;4995848;28;20036;-76
2023/09/30 05:57:49;;;;;;;1999.90;999.90;;;12.50;99.90;;;;;;4995924;28;20037;-76
2023/09/30 06:00:30;;;;;;;1999.90;999.90;;;12.60;99.90;;;;;;4995966;28;20046;-80
2023/09/30 06:02:58;;;;;;;1999.90;999.90;;;12.60;99.90;;;;;;5012084;28;20082;-75
2023/09/30 06:05:26;;;;;;;1999.90;999.90;;;12.80;99.90;;;;;;4994209;28;20112;-76
2023/09/30 06:07:53;;;;;;;1999.90;999.90;;;12.90;99.90;;;;;;5010546;28;20031;-76
2023/09/30 06:10:19;;;;;;;1999.90;999.90;;;13.10;99.90;;;;;;4994744;28;20122;-76
2023/09/30 06:12:54;;;;;;;1999.90;999.90;;;13.40;99.90;;;;;;4987898;28;20041;-76
2023/09/30 06:15:21;;;;;;;1999.90;999.90;;;13.50;99.90;;;;;;4979908;28;20129;-78
2023/09/30 06:17:48;;;;;;;1999.90;999.90;;;13.60;99.90;;;;;;4974456;28;20019;-75
2023/09/30 06:20:17;;;;;;;1999.90;999.90;;;13.70;99.90;;;;;;4976632;28;20043;-80
2023/09/30 06:22:49;;;;;;;1999.90;999.90;;;13.80;99.90;;;;;;4974865;28;20095;-76
2023/09/30 06:25:16;;;;;;;1999.90;999.90;;;13.80;99.90;;;;;;4976181;28;20027;-76
2023/09/30 06:27:45;;;;;;;1999.90;999.90;;;13.80;99.90;;;;;;5067294;22;20487;-77
2023/09/30 06:30:13;;;;;;;1999.90;999.90;;;13.90;99.90;;;;;;5070688;28;20049;-76
2023/09/30 06:32:39;;;;;;;1999.90;999.90;;;13.90;99.90;;;;;;5055354;28;20475;-77
2023/09/30 06:35:06;;;;;;;1999.90;999.90;;;14.00;99.90;;;;;;5054835;28;20033;-76
2023/09/30 06:37:32;;;;;;;1999.90;999.90;;;14.10;99.90;;;;;;5069610;28;20029;-76
2023/09/30 06:39:58;;;;;;;1999.90;999.90;;;14.20;99.90;;;;;;5054841;28;20808;-76
2023/09/30 06:42:24;;;;;;;1999.90;999.90;;;14.30;99.90;;;;;;5054748;28;20044;-76
2023/09/30 06:44:50;;;;;;;1999.90;999.90;;;14.40;99.90;;;;;;5053391;28;20489;-76
2023/09/30 06:47:16;;;;;;;1999.90;999.90;;;14.50;99.90;;;;;;5052543;28;20042;-76
2023/09/30 06:49:41;;;;;;;1999.90;999.90;;;14.50;99.90;;;;;;5054543;28;20387;-76
2023/09/30 06:52:07;;;;;;;1999.90;999.90;;;14.60;99.90;;;;;;5054580;28;20402;-76
2023/09/30 06:54:33;;;;;;;1999.90;999.90;;;14.60;99.90;;;;;;5054479;28;20045;-76
2023/09/30 06:56:58;;;;;;;1999.90;999.90;;;14.60;99.90;;;;;;5053351;28;20554;-77
2023/09/30 06:59:25;;;;;;;1999.90;999.90;;;14.60;99.90;;;;;;5050560;28;20483;-77
2023/09/30 07:01:51;;;;;;;1999.90;999.90;;;14.70;99.90;;;;;;5054880;28;20495;-77
2023/09/30 07:04:16;;;;;;;1999.90;999.90;;;14.60;99.90;;;;;;5054703;28;20076;-77
2023/09/30 07:06:42;;;;;;;1999.90;999.90;;;14.70;99.90;;;;;;5054345;28;20394;-78
2023/09/30 07:09:09;;;;;;;1999.90;999.90;;;14.80;99.90;;;;;;5055979;28;20462;-78
2023/09/30 07:11:35;;;;;;;1999.90;999.90;;;14.90;99.90;;;;;;5055096;28;20515;-78
2023/09/30 07:14:01;;;;;;;1999.90;999.90;;;14.90;99.90;;;;;;5053154;28;20060;-77
2023/09/30 07:16:26;;;;;;;1999.90;999.90;;;15.00;99.90;;;;;;5053931;28;20402;-77
2023/09/30 07:18:52;;;;;;;1999.90;999.90;;;15.20;99.90;;;;;;5052699;28;20033;-77
2023/09/30 07:21:18;;;;;;;1999.90;999.90;;;15.20;99.90;;;;;;5055046;28;20482;-78
2023/09/30 07:23:43;;;;;;;1999.90;999.90;;;15.40;99.90;;;;;;5053034;28;20475;-77
2023/09/30 07:26:09;;;;;;;1999.90;999.90;;;15.40;99.90;;;;;;5051932;28;20044;-78
2023/09/30 07:28:34;;;;;;;1999.90;999.90;;;15.40;99.90;;;;;;5055246;28;20360;-79
2023/09/30 07:31:00;;;;;;;1999.90;999.90;;;15.50;99.90;;;;;;5057291;28;20068;-82
2023/09/30 07:33:26;;;;;;;1999.90;999.90;;;15.50;99.90;;;;;;5041512;28;20033;-84
2023/09/30 07:35:51;;;;;;;1999.90;999.90;;;15.50;99.90;;;;;;5039082;28;20030;-82
2023/09/30 07:38:17;;;;;;;1999.90;999.90;;;15.60;99.90;;;;;;5038517;28;20395;-82
2023/09/30 07:40:43;;;;;;;1999.90;999.90;;;15.60;99.90;;;;;;5054501;28;20065;-88
2023/09/30 07:43:10;;;;;;;1999.90;999.90;;;15.60;99.90;;;;;;5053560;28;20395;-83
2023/09/30 07:45:35;;;;;;;1999.90;999.90;;;15.70;99.90;;;;;;5053767;28;20036;-88
2023/09/30 07:48:04;;;;;;;1999.90;999.90;;;15.90;99.90;;;;;;5054258;28;20045;-87
2023/09/30 07:50:30;;;;;;;1999.90;999.90;;;16.00;99.90;;;;;;5053859;28;20042;-77
2023/09/30 07:52:55;;;;;;;1999.90;999.90;;;16.20;99.90;;;;;;5053308;28;20083;-84
2023/09/30 07:55:21;;;;;;;1999.90;999.90;;;16.40;99.90;;;;;;5053696;28;20395;-84
2023/09/30 07:57:47;;;;;;;1999.90;999.90;;;16.30;99.90;;;;;;5052678;28;20518;-80
2023/09/30 08:00:16;;;;;;;1999.90;999.90;;;16.10;99.90;;;;;;5053798;28;20025;-83
2023/09/30 08:02:42;;;;;;;1999.90;999.90;;;16.30;99.90;;;;;;5053601;28;20025;-83
2023/09/30 08:05:08;;;;;;;1999.90;999.90;;;16.30;99.90;;;;;;5054289;28;20029;-82
2023/09/30 08:07:34;;;;;;;1999.90;999.90;;;16.50;99.90;;;;;;5053815;28;20034;-81
2023/09/30 08:10:00;;;;;;;1999.90;999.90;;;16.60;99.90;;;;;;5056572;28;20037;-78
2023/09/30 08:12:26;;;;;;;1999.90;999.90;;;16.70;99.90;;;;;;5058055;28;20037;-81
2023/09/30 08:14:51;;;;;;;1999.90;999.90;;;16.90;99.90;;;;;;5056931;28;20101;-78
2023/09/30 08:17:17;;;;;;;1999.90;999.90;;;17.10;99.90;;;;;;5055972;28;20100;-81
2023/09/30 08:19:44;;;;;;;1999.90;999.90;;;17.20;99.90;;;;;;5056791;28;20467;-79
2023/09/30 08:22:09;;;;;;;1999.90;999.90;;;17.30;99.90;;;;;;5055589;28;20053;-77
2023/09/30 08:24:35;;;;;;;1999.90;999.90;;;17.30;99.90;;;;;;5057880;28;20033;-83
2023/09/30 08:27:01;;;;;;;1999.90;999.90;;;17.60;99.90;;;;;;5054834;28;20406;-78
2023/09/30 08:29:27;;;;;;;1999.90;999.90;;;17.70;99.90;;;;;;5056119;28;20089;-77
2023/09/30 08:31:52;;;;;;;1999.90;999.90;;;17.90;99.90;;;;;;5055748;28;20046;-79
2023/09/30 08:34:20;;;;;;;1999.90;999.90;;;18.10;99.90;;;;;;5057032;28;20041;-78
2023/09/30 08:36:46;;;;;;;1999.90;999.90;;;18.30;99.90;;;;;;5057841;28;20041;-83
2023/09/30 08:39:12;;;;;;;1999.90;999.90;;;18.50;99.90;;;;;;5055895;28;20035;-74
2023/09/30 08:41:38;;;;;;;1999.90;999.90;;;18.70;99.90;;;;;;5056238;28;20108;-76
2023/09/30 08:44:04;;;;;;;1999.90;999.90;;;18.80;99.90;;;;;;5057439;28;20170;-81
2023/09/30 08:46:34;;;;;;;1999.90;999.90;;;18.90;99.90;;;;;;5053912;28;20033;-77
2023/09/30 08:49:08;;;;;;;1999.90;999.90;;;18.90;99.90;;;;;;5045074;28;20033;-78
2023/09/30 08:51:35;;;;;;;1999.90;999.90;;;18.90;99.90;;;;;;5056239;28;20534;-78
2023/09/30 08:54:03;;;;;;;1999.90;999.90;;;18.80;99.90;;;;;;5055722;28;20114;-78
2023/09/30 08:56:32;;;;;;;1999.90;999.90;;;18.80;99.90;;;;;;5056580;28;20033;-76
2023/09/30 08:58:59;;;;;;;1999.90;999.90;;;18.90;99.90;;;;;;5055793;28;20026;-80
2023/09/30 09:01:26;;;;;;;1999.90;999.90;;;19.10;99.90;;;;;;5057408;28;20037;-79
2023/09/30 09:03:52;;;;;;;1999.90;999.90;;;19.10;99.90;;;;;;5055529;28;20063;-80
2023/09/30 09:06:25;;;;;;;1999.90;999.90;;;19.30;99.90;;;;;;5054431;28;20041;-76
2023/09/30 09:08:52;;;;;;;1999.90;999.90;;;19.20;99.90;;;;;;5056258;28;20025;-76
2023/09/30 09:11:18;;;;;;;1999.90;999.90;;;18.80;99.90;;;;;;5054501;28;20037;-76
2023/09/30 09:13:53;;;;;;;1999.90;999.90;;;18.50;99.90;;;;;;5057139;28;20025;-76
2023/09/30 09:16:18;;;;;;;1999.90;999.90;;;18.60;99.90;;;;;;5054468;28;20040;-76
2023/09/30 09:18:46;;;;;;;1999.90;999.90;;;18.60;99.90;;;;;;5056421;28;20033;-75
2023/09/30 09:21:17;;;;;;;1999.90;999.90;;;18.50;99.90;;;;;;5055051;28;20573;-76
2023/09/30 09:23:44;;;;;;;1999.90;999.90;;;18.70;99.90;;;;;;5055117;28;20029;-76
2023/09/30 09:26:11;;;;;;;1999.90;999.90;;;18.70;99.90;;;;;;5053622;28;20049;-76
2023/09/30 09:28:38;;;;;;;1999.90;999.90;;;18.80;99.90;;;;;;5054237;28;20027;-76
2023/09/30 09:31:21;;;;;;;1999.90;999.90;;;18.70;99.90;;;;;;5055518;28;20065;-76
2023/09/30 09:33:47;;;;;;;1999.90;999.90;;;18.70;99.90;;;;;;5054129;28;20029;-76
2023/09/30 09:36:13;;;;;;;1999.90;999.90;;;18.70;99.90;;;;;;5053654;28;20041;-76
2023/09/30 09:38:53;;;;;;;1999.90;999.90;;;18.70;99.90;;;;;;5055416;28;20487;-76
2023/09/30 09:41:19;;;;;;;1999.90;999.90;;;18.70;99.90;;;;;;5055769;28;20079;-75
2023/09/30 09:43:49;;;;;;;1999.90;999.90;;;19.00;99.90;;;;;;5055641;28;20564;-75
2023/09/30 09:46:16;;;;;;;1999.90;999.90;;;19.40;99.90;;;;;;5053636;28;20068;-76
2023/09/30 09:48:44;;;;;;;1999.90;999.90;;;19.60;99.90;;;;;;5055311;28;20109;-77
2023/09/30 09:51:12;;;;;;;1999.90;999.90;;;19.80;99.90;;;;;;5054868;28;20041;-76
2023/09/30 09:53:40;;;;;;;1999.90;999.90;;;20.10;99.90;;;;;;5055449;28;20028;-76
2023/09/30 09:56:09;;;;;;;1999.90;999.90;;;20.30;99.90;;;;;;5054992;28;20495;-76
2023/09/30 09:58:38;;;;;;;1999.90;999.90;;;20.50;99.90;;;;;;5053664;28;20068;-76
2023/09/30 10:01:09;;;;;;;1999.90;999.90;;;20.20;99.90;;;;;;5055248;28;20029;-76
2023/09/30 10:03:35;;;;;;;1999.90;999.90;;;20.40;99.90;;;;;;5055353;28;20038;-76
2023/09/30 10:06:02;;;;;;;1999.90;999.90;;;20.80;99.90;;;;;;5054624;28;20064;-76
2023/09/30 10:08:40;;;;;;;1999.90;999.90;;;21.00;99.90;;;;;;5055212;28;20084;-76
2023/09/30 10:11:06;;;;;;;1999.90;999.90;;;21.20;99.90;;;;;;5053769;28;20063;-77
2023/09/30 10:13:52;;;;;;;1999.90;999.90;;;21.40;99.90;;;;;;5053877;28;20036;-78
2023/09/30 10:16:36;;;;;;;1999.90;999.90;;;21.40;99.90;;;;;;5054827;28;20040;-76
2023/09/30 10:19:22;;;;;;;1999.90;999.90;;;21.40;99.90;;;;;;5053433;28;20036;-76
2023/09/30 10:22:25;;;;;;;1999.90;999.90;;;21.40;99.90;;;;;;5055076;28;20042;-76
2023/09/30 10:24:56;;;;;;;1999.90;999.90;;;21.20;99.90;;;;;;5053598;28;20470;-76
2023/09/30 10:27:21;;;;;;;1999.90;999.90;;;20.80;99.90;;;;;;5054054;28;20506;-76
2023/09/30 10:29:48;;;;;;;1999.90;999.90;;;20.70;99.90;;;;;;5054667;28;20030;-75
2023/09/30 10:32:14;;;;;;;1999.90;999.90;;;20.60;99.90;;;;;;5054557;28;20034;-76
2023/09/30 10:34:52;;;;;;;1999.90;999.90;;;21.00;99.90;;;;;;5055020;28;20030;-76
2023/09/30 10:37:24;;;;;;;1999.90;999.90;;;20.90;99.90;;;;;;5053071;28;20041;-76
2023/09/30 10:39:59;;;;;;;1999.90;999.90;;;21.10;99.90;;;;;;5054674;28;20060;-76
2023/09/30 10:42:49;;;;;;;1999.90;999.90;;;21.10;99.90;;;;;;5054799;28;20033;-76
2023/09/30 10:45:48;;;;;;;1999.90;999.90;;;20.90;99.90;;;;;;5054791;28;20525;-76
2023/09/30 10:48:26;;;;;;;1999.90;999.90;;;20.60;99.90;;;;;;5020793;28;20112;-76
2023/09/30 10:50:58;;;;;;;1999.90;999.90;;;20.80;99.90;;;;;;5054447;28;20120;-76
2023/09/30 10:53:24;;;;;;;1999.90;999.90;;;21.20;99.90;;;;;;5054540;28;20808;-78
2023/09/30 10:56:00;;;;;;;1999.90;999.90;;;21.70;99.90;;;;;;5054470;28;20041;-76
2023/09/30 10:58:41;;;;;;;1999.90;999.90;;;22.10;99.90;;;;;;5054569;28;20037;-76
2023/09/30 11:01:07;;;;;;;1999.90;999.90;;;22.30;99.90;;;;;;5052856;28;20081;-76
2023/09/30 11:03:33;;;;;;;1999.90;999.90;;;22.40;99.90;;;;;;5054522;28;20025;-76
2023/09/30 11:05:59;;;;;;;1999.90;999.90;;;22.60;99.90;;;;;;5054205;28;20044;-76
2023/09/30 11:08:28;;;;;;;1999.90;999.90;;;22.50;99.90;;;;;;5054548;28;20487;-76
2023/09/30 11:10:54;;;;;;;1999.90;999.90;;;22.10;99.90;;;;;;5052695;28;20073;-76
2023/09/30 11:13:20;;;;;;;1999.90;999.90;;;22.10;99.90;;;;;;5054357;28;20439;-76
2023/09/30 11:15:47;;;;;;;1999.90;999.90;;;22.00;99.90;;;;;;5052493;28;20057;-76
2023/09/30 11:18:17;;;;;;;1999.90;999.90;;;22.10;99.90;;;;;;5054210;28;20041;-76
2023/09/30 11:20:47;;;;;;;1999.90;999.90;;;21.60;99.90;;;;;;5054256;28;20056;-76
2023/09/30 11:23:14;;;;;;;1999.90;999.90;;;21.20;99.90;;;;;;5054247;28;20084;-76
2023/09/30 11:25:41;;;;;;;1999.90;999.90;;;20.90;99.90;;;;;;5054021;28;20036;-76
2023/09/30 11:28:18;;;;;;;1999.90;999.90;;;20.90;99.90;;;;;;5052723;28;20137;-76
2023/09/30 11:30:58;;;;;;;1999.90;999.90;;;21.10;99.90;;;;;;5052639;28;20038;-76
2023/09/30 11:33:24;;;;;;;1999.90;999.90;;;21.50;99.90;;;;;;5052789;28;20037;-76
2023/09/30 11:36:05;;;;;;;1999.90;999.90;;;21.60;99.90;;;;;;5053633;28;20390;-76
2023/09/30 11:38:32;;;;;;;1999.90;999.90;;;21.80;99.90;;;;;;5054050;28;20108;-76
2023/09/30 11:41:02;;;;;;;1999.90;999.90;;;21.70;99.70;;;;;;5053753;28;20062;-75
2023/09/30 11:43:29;;;;;;;1999.90;999.90;;;21.20;99.90;;;;;;5054518;28;20030;-76
2023/09/30 11:46:08;;;;;;;1999.90;999.90;;;21.20;99.90;;;;;;5057166;28;20038;-76
2023/09/30 11:48:37;;;;;;;1999.90;999.90;;;21.30;99.90;;;;;;5057973;28;20038;-78
2023/09/30 11:51:03;;;;;;;1999.90;999.90;;;21.30;99.90;;;;;;5056955;28;20091;-77
2023/09/30 11:53:35;;;;;;;1999.90;999.90;;;21.30;99.90;;;;;;5060746;28;20025;-80
2023/09/30 11:56:02;;;;;;;1999.90;999.90;;;21.10;99.90;;;;;;5058957;28;20034;-78
2023/09/30 11:58:32;;;;;;;1999.90;999.90;;;21.00;99.90;;;;;;5058844;28;20092;-80
2023/09/30 12:00:59;;;;;;;1999.90;999.90;;;21.10;99.90;;;;;;5057667;28;20041;-77
2023/09/30 12:03:27;;;;;;;1999.90;999.90;;;21.40;99.90;;;;;;5059845;28;20026;-81